sensor_id;sensor_type;location;lat;lon;timestamp;temperature;humidity
19561;DHT22;9927;47.792;10.616;2022-09-03T03:01:19;13.80;99.90
19561;DHT22;9927;47.792;10.616;2022-09-03T03:03:50;13.80;99.90
19561;DHT22;9927;47.792;10.616;2022-09-03T03:06:19;13.70;99.90
19561;DHT22;9927;47.792;10.616;2022-09-03T03:08:48;13.80;99.90
19561;DHT22;9927;47.792;10.616;2022-09-03T03:11:18;13.80;99.90
19561;DHT22;9927;47.792;10.616;2022-09-03T03:13:46;13.80;99.90
19561;DHT22;9927;47.792;10.616;2022-09-03T03:16:14;13.80;99.90
19561;DHT22;9927;47.792;10.616;2022-09-03T03:18:43;13.90;99.90
19561;DHT22;9927;47.792;10.616;2022-09-03T03:21:15;13.80;99.90
19561;DHT22;9927;47.792;10.616;2022-09-03T03:23:43;13.90;99.90
19561;DHT22;9927;47.792;10.616;2022-09-03T03:26:13;13.90;99.90
19561;DHT22;9927;47.792;10.616;2022-09-03T03:28:40;14.00;99.90
19561;DHT22;9927;47.792;10.616;2022-09-03T03:31:10;14.00;99.90
19561;DHT22;9927;47.792;10.616;2022-09-03T03:33:38;14.20;99.90
19561;DHT22;9927;47.792;10.616;2022-09-03T03:36:12;14.20;99.90
19561;DHT22;9927;47.792;10.616;2022-09-03T03:38:41;14.20;99.90
19561;DHT22;9927;47.792;10.616;2022-09-03T03:43:42;14.30;99.90
19561;DHT22;9927;47.792;10.616;2022-09-03T03:46:09;14.30;99.90
19561;DHT22;9927;47.792;10.616;2022-09-03T03:48:38;14.40;99.90
19561;DHT22;9927;47.792;10.616;2022-09-03T03:51:07;14.40;99.90
19561;DHT22;9927;47.792;10.616;2022-09-03T03:53:36;14.40;99.90
19561;DHT22;9927;47.792;10.616;2022-09-03T03:56:07;14.50;99.90
19561;DHT22;9927;47.792;10.616;2022-09-03T03:58:36;14.60;99.90
19561;DHT22;9927;47.792;10.616;2022-09-03T04:01:05;14.60;99.90
19561;DHT22;9927;47.792;10.616;2022-09-03T04:03:34;14.70;99.90
19561;DHT22;9927;47.792;10.616;2022-09-03T04:06:03;14.70;99.90
19561;DHT22;9927;47.792;10.616;2022-09-03T04:08:34;14.80;99.90
19561;DHT22;9927;47.792;10.616;2022-09-03T04:11:03;14.90;99.90
19561;DHT22;9927;47.792;10.616;2022-09-03T04:13:36;14.90;99.90
19561;DHT22;9927;47.792;10.616;2022-09-03T04:16:09;15.00;99.90
19561;DHT22;9927;47.792;10.616;2022-09-03T04:18:37;15.00;99.90
19561;DHT22;9927;47.792;10.616;2022-09-03T04:21:15;15.00;99.90
19561;DHT22;9927;47.792;10.616;2022-09-03T04:23:44;15.10;99.90
19561;DHT22;9927;47.792;10.616;2022-09-03T04:26:15;15.10;99.90
19561;DHT22;9927;47.792;10.616;2022-09-03T04:28:42;15.20;99.90
19561;DHT22;9927;47.792;10.616;2022-09-03T04:31:12;15.20;99.90
19561;DHT22;9927;47.792;10.616;2022-09-03T04:33:41;15.30;99.90
19561;DHT22;9927;47.792;10.616;2022-09-03T04:36:23;15.30;99.90
19561;DHT22;9927;47.792;10.616;2022-09-03T04:38:52;15.40;99.90
19561;DHT22;9927;47.792;10.616;2022-09-03T04:41:28;15.40;99.90
19561;DHT22;9927;47.792;10.616;2022-09-03T04:43:58;15.40;99.90
19561;DHT22;9927;47.792;10.616;2022-09-03T04:46:27;15.40;99.90
19561;DHT22;9927;47.792;10.616;2022-09-03T04:49:00;15.30;99.90
19561;DHT22;9927;47.792;10.616;2022-09-03T04:51:29;15.30;99.90
19561;DHT22;9927;47.792;10.616;2022-09-03T04:53:59;15.30;99.90
19561;DHT22;9927;47.792;10.616;2022-09-03T04:56:29;15.30;99.90
19561;DHT22;9927;47.792;10.616;2022-09-03T04:58:59;15.30;99.90
19561;DHT22;9927;47.792;10.616;2022-09-03T05:01:30;15.30;99.90
19561;DHT22;9927;47.792;10.616;2022-09-03T05:03:58;15.40;99.90
19561;DHT22;9927;47.792;10.616;2022-09-03T05:06:28;15.40;99.90
19561;DHT22;9927;47.792;10.616;2022-09-03T05:08:56;15.50;99.90
19561;DHT22;9927;47.792;10.616;2022-09-03T05:11:25;15.50;99.90
19561;DHT22;9927;47.792;10.616;2022-09-03T05:13:55;15.30;99.90
19561;DHT22;9927;47.792;10.616;2022-09-03T05:16:25;15.40;99.90
19561;DHT22;9927;47.792;10.616;2022-09-03T05:19:06;15.50;99.90
19561;DHT22;9927;47.792;10.616;2022-09-03T05:21:38;15.50;99.90
19561;DHT22;9927;47.792;10.616;2022-09-03T05:24:09;15.60;99.90
19561;DHT22;9927;47.792;10.616;2022-09-03T05:26:42;15.70;99.90
19561;DHT22;9927;47.792;10.616;2022-09-03T05:29:11;15.70;99.90
19561;DHT22;9927;47.792;10.616;2022-09-03T05:32:08;15.80;99.90
19561;DHT22;9927;47.792;10.616;2022-09-03T05:34:36;15.90;99.90
19561;DHT22;9927;47.792;10.616;2022-09-03T05:37:05;15.80;99.90
19561;DHT22;9927;47.792;10.616;2022-09-03T05:39:35;15.90;99.90
19561;DHT22;9927;47.792;10.616;2022-09-03T05:42:06;15.80;99.90
19561;DHT22;9927;47.792;10.616;2022-09-03T05:44:36;15.80;99.90
19561;DHT22;9927;47.792;10.616;2022-09-03T05:47:16;15.80;99.90
19561;DHT22;9927;47.792;10.616;2022-09-03T05:49:48;15.80;99.90
19561;DHT22;9927;47.792;10.616;2022-09-03T05:52:15;15.80;99.90
19561;DHT22;9927;47.792;10.616;2022-09-03T05:54:44;15.80;99.90
19561;DHT22;9927;47.792;10.616;2022-09-03T05:57:12;15.90;99.90
19561;DHT22;9927;47.792;10.616;2022-09-03T05:59:40;15.80;99.90
19561;DHT22;9927;47.792;10.616;2022-09-03T06:02:07;15.80;99.90
19561;DHT22;9927;47.792;10.616;2022-09-03T06:04:38;15.80;99.90
19561;DHT22;9927;47.792;10.616;2022-09-03T06:07:05;15.90;99.90
19561;DHT22;9927;47.792;10.616;2022-09-03T06:09:32;15.90;99.90
19561;DHT22;9927;47.792;10.616;2022-09-03T06:11:59;15.90;99.90
19561;DHT22;9927;47.792;10.616;2022-09-03T06:14:30;15.80;99.90
19561;DHT22;9927;47.792;10.616;2022-09-03T06:16:57;15.90;99.90
19561;DHT22;9927;47.792;10.616;2022-09-03T06:19:25;15.90;99.90
19561;DHT22;9927;47.792;10.616;2022-09-03T06:21:52;16.00;99.90
19561;DHT22;9927;47.792;10.616;2022-09-03T06:24:20;16.00;99.90
19561;DHT22;9927;47.792;10.616;2022-09-03T06:26:57;16.10;99.90
19561;DHT22;9927;47.792;10.616;2022-09-03T06:29:25;16.10;99.90
19561;DHT22;9927;47.792;10.616;2022-09-03T06:31:52;16.20;99.90
19561;DHT22;9927;47.792;10.616;2022-09-03T06:34:21;16.20;99.90
19561;DHT22;9927;47.792;10.616;2022-09-03T06:36:49;16.20;99.90
19561;DHT22;9927;47.792;10.616;2022-09-03T06:39:20;16.20;99.90
19561;DHT22;9927;47.792;10.616;2022-09-03T06:41:48;16.30;99.90
19561;DHT22;9927;47.792;10.616;2022-09-03T06:44:17;16.50;99.90
19561;DHT22;9927;47.792;10.616;2022-09-03T06:46:45;16.60;99.90
19561;DHT22;9927;47.792;10.616;2022-09-03T06:49:13;16.70;99.90
19561;DHT22;9927;47.792;10.616;2022-09-03T06:51:41;16.70;99.90
19561;DHT22;9927;47.792;10.616;2022-09-03T06:54:11;16.90;99.90
19561;DHT22;9927;47.792;10.616;2022-09-03T06:57:08;16.90;99.90
19561;DHT22;9927;47.792;10.616;2022-09-03T07:00:12;17.00;99.90
19561;DHT22;9927;47.792;10.616;2022-09-03T07:02:58;17.20;99.90
19561;DHT22;9927;47.792;10.616;2022-09-03T07:05:26;17.30;99.90
19561;DHT22;9927;47.792;10.616;2022-09-03T07:07:54;17.40;99.90
19561;DHT22;9927;47.792;10.616;2022-09-03T07:10:21;17.50;99.90
19561;DHT22;9927;47.792;10.616;2022-09-03T07:12:49;17.50;99.90
19561;DHT22;9927;47.792;10.616;2022-09-03T07:15:16;17.70;99.90
19561;DHT22;9927;47.792;10.616;2022-09-03T07:17:43;17.70;99.90
19561;DHT22;9927;47.792;10.616;2022-09-03T07:20:13;17.80;99.90
19561;DHT22;9927;47.792;10.616;2022-09-03T07:22:40;18.10;99.90
19561;DHT22;9927;47.792;10.616;2022-09-03T07:25:08;18.40;99.90
19561;DHT22;9927;47.792;10.616;2022-09-03T07:27:35;18.60;99.90
19561;DHT22;9927;47.792;10.616;2022-09-03T07:30:03;18.70;99.90
19561;DHT22;9927;47.792;10.616;2022-09-03T07:32:35;18.80;99.90
19561;DHT22;9927;47.792;10.616;2022-09-03T07:35:07;18.70;99.90
19561;DHT22;9927;47.792;10.616;2022-09-03T07:37:34;18.80;99.90
19561;DHT22;9927;47.792;10.616;2022-09-03T07:40:02;18.90;99.90
19561;DHT22;9927;47.792;10.616;2022-09-03T07:42:30;19.20;99.90
19561;DHT22;9927;47.792;10.616;2022-09-03T07:44:58;20.00;99.90
19561;DHT22;9927;47.792;10.616;2022-09-03T07:47:25;20.70;99.90
19561;DHT22;9927;47.792;10.616;2022-09-03T07:49:53;20.70;99.90
19561;DHT22;9927;47.792;10.616;2022-09-03T07:52:20;20.70;99.90
19561;DHT22;9927;47.792;10.616;2022-09-03T07:54:48;20.60;99.90
19561;DHT22;9927;47.792;10.616;2022-09-03T07:57:16;20.60;99.90
19561;DHT22;9927;47.792;10.616;2022-09-03T07:59:43;20.70;99.90
19561;DHT22;9927;47.792;10.616;2022-09-03T08:02:10;20.80;99.90
19561;DHT22;9927;47.792;10.616;2022-09-03T08:04:37;21.10;99.90
19561;DHT22;9927;47.792;10.616;2022-09-03T08:07:04;22.10;99.90
19561;DHT22;9927;47.792;10.616;2022-09-03T08:09:32;23.00;99.90
19561;DHT22;9927;47.792;10.616;2022-09-03T08:11:59;24.10;99.90
19561;DHT22;9927;47.792;10.616;2022-09-03T08:14:26;24.90;99.90
19561;DHT22;9927;47.792;10.616;2022-09-03T08:16:56;24.70;99.90
19561;DHT22;9927;47.792;10.616;2022-09-03T08:19:25;24.70;99.90
19561;DHT22;9927;47.792;10.616;2022-09-03T08:21:53;24.50;99.90
19561;DHT22;9927;47.792;10.616;2022-09-03T08:24:20;24.00;99.90
19561;DHT22;9927;47.792;10.616;2022-09-03T08:26:50;23.80;99.90
19561;DHT22;9927;47.792;10.616;2022-09-03T08:29:19;23.90;99.90
19561;DHT22;9927;47.792;10.616;2022-09-03T08:31:47;24.00;99.90
19561;DHT22;9927;47.792;10.616;2022-09-03T08:34:14;24.30;99.90
19561;DHT22;9927;47.792;10.616;2022-09-03T08:36:45;24.40;99.90
19561;DHT22;9927;47.792;10.616;2022-09-03T08:39:13;24.40;99.90
19561;DHT22;9927;47.792;10.616;2022-09-03T08:42:04;24.30;99.90
19561;DHT22;9927;47.792;10.616;2022-09-03T08:44:48;24.10;99.90
19561;DHT22;9927;47.792;10.616;2022-09-03T08:52:45;23.50;99.90
19561;DHT22;9927;47.792;10.616;2022-09-03T08:55:35;23.60;99.90
19561;DHT22;9927;47.792;10.616;2022-09-03T08:58:16;24.00;99.90
19561;DHT22;9927;47.792;10.616;2022-09-03T09:01:29;24.70;99.90
19561;DHT22;9927;47.792;10.616;2022-09-03T09:22:37;24.60;99.90
19561;DHT22;9927;47.792;10.616;2022-09-03T09:25:11;24.70;99.90
19561;DHT22;9927;47.792;10.616;2022-09-03T09:28:00;25.30;99.90
19561;DHT22;9927;47.792;10.616;2022-09-03T09:30:30;25.40;99.90
19561;DHT22;9927;47.792;10.616;2022-09-03T09:32:58;25.90;99.90
19561;DHT22;9927;47.792;10.616;2022-09-03T09:35:26;25.80;99.90
19561;DHT22;9927;47.792;10.616;2022-09-03T09:37:56;25.20;99.90
19561;DHT22;9927;47.792;10.616;2022-09-03T09:40:31;25.00;99.90
19561;DHT22;9927;47.792;10.616;2022-09-03T09:43:13;25.00;99.90
19561;DHT22;9927;47.792;10.616;2022-09-03T09:45:44;25.30;99.90
19561;DHT22;9927;47.792;10.616;2022-09-03T09:48:59;25.30;99.90
19561;DHT22;9927;47.792;10.616;2022-09-03T09:56:42;24.90;99.90
19561;DHT22;9927;47.792;10.616;2022-09-03T09:59:11;25.00;99.90
19561;DHT22;9927;47.792;10.616;2022-09-03T10:01:41;24.80;99.90
19561;DHT22;9927;47.792;10.616;2022-09-03T10:04:21;24.60;99.90
19561;DHT22;9927;47.792;10.616;2022-09-03T10:07:40;24.40;99.90
19561;DHT22;9927;47.792;10.616;2022-09-03T10:09:41;24.10;99.90
19561;DHT22;9927;47.792;10.616;2022-09-03T10:12:17;23.90;99.90
19561;DHT22;9927;47.792;10.616;2022-09-03T10:14:56;24.00;99.90
19561;DHT22;9927;47.792;10.616;2022-09-03T10:17:42;24.00;99.90
19561;DHT22;9927;47.792;10.616;2022-09-03T10:25:41;24.70;99.90
19561;DHT22;9927;47.792;10.616;2022-09-03T10:28:09;25.00;99.90
19561;DHT22;9927;47.792;10.616;2022-09-03T10:37:09;24.20;99.90
19561;DHT22;9927;47.792;10.616;2022-09-03T10:50:53;23.50;99.90
19561;DHT22;9927;47.792;10.616;2022-09-03T10:56:16;23.20;99.90
19561;DHT22;9927;47.792;10.616;2022-09-03T10:58:55;23.20;99.90
19561;DHT22;9927;47.792;10.616;2022-09-03T11:07:03;23.10;99.90
19561;DHT22;9927;47.792;10.616;2022-09-03T11:09:42;23.20;99.90
19561;DHT22;9927;47.792;10.616;2022-09-03T11:12:21;23.10;99.90
19561;DHT22;9927;47.792;10.616;2022-09-03T11:15:08;23.10;99.90
19561;DHT22;9927;47.792;10.616;2022-09-03T11:17:54;23.20;99.90
19561;DHT22;9927;47.792;10.616;2022-09-03T11:20:24;23.20;99.90
19561;DHT22;9927;47.792;10.616;2022-09-03T11:22:55;23.30;99.90
19561;DHT22;9927;47.792;10.616;2022-09-03T11:25:29;23.40;99.90
19561;DHT22;9927;47.792;10.616;2022-09-03T11:31:20;23.60;99.90
19561;DHT22;9927;47.792;10.616;2022-09-03T11:33:55;23.60;99.90
19561;DHT22;9927;47.792;10.616;2022-09-03T11:36:35;23.70;99.90
19561;DHT22;9927;47.792;10.616;2022-09-03T11:39:32;23.50;99.90
19561;DHT22;9927;47.792;10.616;2022-09-03T11:42:03;23.40;99.90
19561;DHT22;9927;47.792;10.616;2022-09-03T11:44:40;23.40;99.90
19561;DHT22;9927;47.792;10.616;2022-09-03T11:47:23;23.30;99.90
19561;DHT22;9927;47.792;10.616;2022-09-03T11:49:52;23.40;99.40
19561;DHT22;9927;47.792;10.616;2022-09-03T11:52:31;23.40;99.90
19561;DHT22;9927;47.792;10.616;2022-09-03T11:54:58;23.40;99.50
19561;DHT22;9927;47.792;10.616;2022-09-03T11:57:27;23.40;99.60
19561;DHT22;9927;47.792;10.616;2022-09-03T12:00:10;23.30;99.10
19561;DHT22;9927;47.792;10.616;2022-09-03T12:03:01;23.30;99.90
19561;DHT22;9927;47.792;10.616;2022-09-03T12:05:45;23.30;99.50
19561;DHT22;9927;47.792;10.616;2022-09-03T12:11:34;23.50;99.70
19561;DHT22;9927;47.792;10.616;2022-09-03T12:17:14;24.00;99.40
19561;DHT22;9927;47.792;10.616;2022-09-03T12:22:18;24.10;99.90
19561;DHT22;9927;47.792;10.616;2022-09-03T12:24:46;24.30;98.90
19561;DHT22;9927;47.792;10.616;2022-09-03T12:27:22;24.40;98.50
19561;DHT22;9927;47.792;10.616;2022-09-03T12:29:53;24.30;98.60
19561;DHT22;9927;47.792;10.616;2022-09-03T12:32:25;24.20;98.30
19561;DHT22;9927;47.792;10.616;2022-09-03T12:34:53;24.10;97.80
19561;DHT22;9927;47.792;10.616;2022-09-03T12:37:32;24.00;97.60
19561;DHT22;9927;47.792;10.616;2022-09-03T12:40:28;23.80;97.40
19561;DHT22;9927;47.792;10.616;2022-09-03T12:43:13;23.70;97.70
19561;DHT22;9927;47.792;10.616;2022-09-03T12:46:01;23.50;99.90
19561;DHT22;9927;47.792;10.616;2022-09-03T12:48:36;22.80;99.90
19561;DHT22;9927;47.792;10.616;2022-09-03T12:51:09;21.80;99.90
19561;DHT22;9927;47.792;10.616;2022-09-03T12:53:56;21.10;99.90
19561;DHT22;9927;47.792;10.616;2022-09-03T12:56:24;20.60;99.90
19561;DHT22;9927;47.792;10.616;2022-09-03T12:58:59;19.50;99.90
19561;DHT22;9927;47.792;10.616;2022-09-03T13:01:31;18.90;99.90
19561;DHT22;9927;47.792;10.616;2022-09-03T13:04:09;18.40;99.90
19561;DHT22;9927;47.792;10.616;2022-09-03T13:09:19;17.90;99.90
19561;DHT22;9927;47.792;10.616;2022-09-03T13:11:48;17.80;99.90
19561;DHT22;9927;47.792;10.616;2022-09-03T13:14:17;17.90;99.90
19561;DHT22;9927;47.792;10.616;2022-09-03T13:27:38;18.10;99.90
19561;DHT22;9927;47.792;10.616;2022-09-03T13:30:15;18.00;99.90
19561;DHT22;9927;47.792;10.616;2022-09-03T13:33:03;17.80;99.90
19561;DHT22;9927;47.792;10.616;2022-09-03T13:38:22;17.70;99.90
19561;DHT22;9927;47.792;10.616;2022-09-03T13:42:01;17.70;99.90
19561;DHT22;9927;47.792;10.616;2022-09-03T13:46:54;17.70;99.90
19561;DHT22;9927;47.792;10.616;2022-09-03T13:49:49;17.70;99.90
19561;DHT22;9927;47.792;10.616;2022-09-03T13:52:39;17.80;99.90
19561;DHT22;9927;47.792;10.616;2022-09-03T13:55:35;17.60;99.90
19561;DHT22;9927;47.792;10.616;2022-09-03T13:58:04;17.50;99.90
19561;DHT22;9927;47.792;10.616;2022-09-03T14:00:39;17.50;99.90
19561;DHT22;9927;47.792;10.616;2022-09-03T14:04:12;17.50;99.90
19561;DHT22;9927;47.792;10.616;2022-09-03T14:17:57;17.50;99.90
19561;DHT22;9927;47.792;10.616;2022-09-03T14:20:32;17.60;99.90
19561;DHT22;9927;47.792;10.616;2022-09-03T14:23:17;17.60;99.90
19561;DHT22;9927;47.792;10.616;2022-09-03T14:25:59;17.70;99.90
19561;DHT22;9927;47.792;10.616;2022-09-03T14:28:34;17.80;99.90
19561;DHT22;9927;47.792;10.616;2022-09-03T14:34:04;18.00;99.90
19561;DHT22;9927;47.792;10.616;2022-09-03T14:39:49;18.40;99.90
19561;DHT22;9927;47.792;10.616;2022-09-03T14:45:29;18.90;99.90
19561;DHT22;9927;47.792;10.616;2022-09-03T14:53:41;20.40;99.90
19561;DHT22;9927;47.792;10.616;2022-09-03T14:56:34;20.20;99.90
19561;DHT22;9927;47.792;10.616;2022-09-03T15:13:20;20.90;99.90
19561;DHT22;9927;47.792;10.616;2022-09-03T15:15:57;20.90;99.90
19561;DHT22;9927;47.792;10.616;2022-09-03T15:21:24;20.90;99.90
19561;DHT22;9927;47.792;10.616;2022-09-03T15:24:13;20.80;99.90
19561;DHT22;9927;47.792;10.616;2022-09-03T15:29:23;20.90;99.90
19561;DHT22;9927;47.792;10.616;2022-09-03T15:34:54;20.80;99.90
19561;DHT22;9927;47.792;10.616;2022-09-03T15:37:44;20.80;99.90
19561;DHT22;9927;47.792;10.616;2022-09-03T15:40:27;20.80;99.90
19561;DHT22;9927;47.792;10.616;2022-09-03T15:43:05;20.70;99.90
19561;DHT22;9927;47.792;10.616;2022-09-03T15:45:37;20.70;99.90
19561;DHT22;9927;47.792;10.616;2022-09-03T15:53:52;20.80;99.90
19561;DHT22;9927;47.792;10.616;2022-09-03T15:59:50;20.70;99.90
19561;DHT22;9927;47.792;10.616;2022-09-03T16:02:18;20.60;99.90
19561;DHT22;9927;47.792;10.616;2022-09-03T16:07:47;20.50;99.90
19561;DHT22;9927;47.792;10.616;2022-09-03T16:10:18;20.40;99.90
19561;DHT22;9927;47.792;10.616;2022-09-03T16:18:37;20.40;99.90
19561;DHT22;9927;47.792;10.616;2022-09-03T16:21:22;20.20;99.90
19561;DHT22;9927;47.792;10.616;2022-09-03T16:26:36;20.30;99.90
19561;DHT22;9927;47.792;10.616;2022-09-03T16:29:14;20.30;99.90
19561;DHT22;9927;47.792;10.616;2022-09-03T16:40:00;20.10;99.90
19561;DHT22;9927;47.792;10.616;2022-09-03T16:51:51;20.00;99.90
19561;DHT22;9927;47.792;10.616;2022-09-03T16:54:33;19.90;99.90
19561;DHT22;9927;47.792;10.616;2022-09-03T17:00:00;19.70;99.90
19561;DHT22;9927;47.792;10.616;2022-09-03T17:08:11;19.50;99.90
19561;DHT22;9927;47.792;10.616;2022-09-03T17:10:50;19.50;99.90
19561;DHT22;9927;47.792;10.616;2022-09-03T17:16:19;19.30;99.90
19561;DHT22;9927;47.792;10.616;2022-09-03T17:21:38;19.10;99.90
19561;DHT22;9927;47.792;10.616;2022-09-03T17:24:31;19.00;99.90
19561;DHT22;9927;47.792;10.616;2022-09-03T17:30:14;18.80;99.90
19561;DHT22;9927;47.792;10.616;2022-09-03T17:35:52;18.70;99.90
19561;DHT22;9927;47.792;10.616;2022-09-03T17:43:49;18.50;99.90
19561;DHT22;9927;47.792;10.616;2022-09-03T17:48:59;18.40;99.90
19561;DHT22;9927;47.792;10.616;2022-09-03T17:54:59;18.20;99.90
19561;DHT22;9927;47.792;10.616;2022-09-03T17:57:25;18.10;99.90
19561;DHT22;9927;47.792;10.616;2022-09-03T18:00:04;18.00;99.90
19561;DHT22;9927;47.792;10.616;2022-09-03T18:10:27;17.80;99.90
19561;DHT22;9927;47.792;10.616;2022-09-03T18:16:06;17.70;99.90
19561;DHT22;9927;47.792;10.616;2022-09-03T18:18:41;17.60;99.90
19561;DHT22;9927;47.792;10.616;2022-09-03T18:21:12;17.50;99.90
19561;DHT22;9927;47.792;10.616;2022-09-03T18:27:26;17.30;99.90
19561;DHT22;9927;47.792;10.616;2022-09-03T18:30:14;17.30;99.90
19561;DHT22;9927;47.792;10.616;2022-09-03T18:33:00;17.10;99.90
19561;DHT22;9927;47.792;10.616;2022-09-03T18:35:46;17.00;99.90
19561;DHT22;9927;47.792;10.616;2022-09-03T18:38:35;16.90;99.90
19561;DHT22;9927;47.792;10.616;2022-09-03T18:41:30;16.80;99.90
19561;DHT22;9927;47.792;10.616;2022-09-03T18:44:45;16.70;99.90
19561;DHT22;9927;47.792;10.616;2022-09-03T18:50:58;16.60;99.90
19561;DHT22;9927;47.792;10.616;2022-09-03T18:56:49;16.60;99.90
19561;DHT22;9927;47.792;10.616;2022-09-03T19:00:07;16.60;99.90
19561;DHT22;9927;47.792;10.616;2022-09-03T19:06:19;16.30;99.90
19561;DHT22;9927;47.792;10.616;2022-09-03T19:12:37;16.30;99.90
19561;DHT22;9927;47.792;10.616;2022-09-03T19:15:30;16.30;99.90
19561;DHT22;9927;47.792;10.616;2022-09-03T19:18:30;16.30;99.90
19561;DHT22;9927;47.792;10.616;2022-09-03T19:21:35;16.30;99.90
19561;DHT22;9927;47.792;10.616;2022-09-03T19:24:29;16.20;99.90
19561;DHT22;9927;47.792;10.616;2022-09-03T19:27:40;16.20;99.90
19561;DHT22;9927;47.792;10.616;2022-09-03T19:31:01;16.10;99.90
19561;DHT22;9927;47.792;10.616;2022-09-03T19:37:20;16.00;99.90
19561;DHT22;9927;47.792;10.616;2022-09-03T19:46:23;15.80;99.90
19561;DHT22;9927;47.792;10.616;2022-09-03T19:49:30;15.50;99.90
19561;DHT22;9927;47.792;10.616;2022-09-03T19:55:37;15.40;99.90
19561;DHT22;9927;47.792;10.616;2022-09-03T19:58:26;15.30;99.90
19561;DHT22;9927;47.792;10.616;2022-09-03T20:01:15;15.40;99.90
19561;DHT22;9927;47.792;10.616;2022-09-03T20:04:13;15.40;99.90
19561;DHT22;9927;47.792;10.616;2022-09-03T20:07:02;15.40;99.90
19561;DHT22;9927;47.792;10.616;2022-09-03T20:09:50;15.40;99.90
19561;DHT22;9927;47.792;10.616;2022-09-03T20:12:40;15.40;99.90
19561;DHT22;9927;47.792;10.616;2022-09-03T20:15:09;15.40;99.90
19561;DHT22;9927;47.792;10.616;2022-09-03T20:18:03;15.40;99.90
19561;DHT22;9927;47.792;10.616;2022-09-03T20:23:22;15.10;99.90
19561;DHT22;9927;47.792;10.616;2022-09-03T20:26:09;15.20;99.90
19561;DHT22;9927;47.792;10.616;2022-09-03T20:32:12;15.20;99.90
19561;DHT22;9927;47.792;10.616;2022-09-03T20:34:51;15.20;99.90
19561;DHT22;9927;47.792;10.616;2022-09-03T20:37:50;15.20;99.90
19561;DHT22;9927;47.792;10.616;2022-09-03T20:40:30;15.20;99.90
19561;DHT22;9927;47.792;10.616;2022-09-03T20:51:56;15.20;99.90
19561;DHT22;9927;47.792;10.616;2022-09-03T20:59:56;15.30;99.90
